Time;durP1;ratioP1;P1;durP2;ratioP2;P2;SDS_P1;SDS_P2;PMS_P1;PMS_P2;Temp;Humidity;BMP_temperature;BMP_pressure;BME280_temperature;BME280_humidity;BME280_pressure;Samples;Min_cycle;Max_cycle;Signal;HPM_P1;HPM_P2
2021/01/24 00:01:52;;;;;;;0.65;0.10;;;11.50;88.40;;;;;;4950742;28;83617;-71
2021/01/24 00:04:18;;;;;;;0.63;0.10;;;11.40;88.40;;;;;;4967647;28;79818;-70
2021/01/24 00:06:44;;;;;;;0.70;0.13;;;11.40;88.50;;;;;;4950311;28;83197;-71
2021/01/24 00:09:10;;;;;;;0.85;0.20;;;11.40;88.50;;;;;;4967777;28;80450;-74
2021/01/24 00:11:36;;;;;;;1.13;0.10;;;11.40;88.50;;;;;;4949759;28;80636;-73
2021/01/24 00:14:02;;;;;;;0.73;0.10;;;11.40;88.50;;;;;;4949744;28;80369;-82
2021/01/24 00:16:28;;;;;;;1.98;0.20;;;11.40;88.50;;;;;;4968080;28;79783;-74
2021/01/24 00:18:54;;;;;;;0.30;0.10;;;11.40;88.50;;;;;;4967464;28;80559;-82
2021/01/24 00:21:20;;;;;;;0.70;0.10;;;11.40;88.40;;;;;;4967134;28;79974;-74
2021/01/24 00:23:46;;;;;;;2.28;0.73;;;11.40;88.40;;;;;;4933282;28;80509;-73
2021/01/24 00:26:11;;;;;;;3.20;0.10;;;11.40;88.40;;;;;;4967084;28;79973;-80
2021/01/24 00:28:37;;;;;;;0.95;0.10;;;11.40;88.40;;;;;;4949280;28;80401;-73
2021/01/24 00:31:03;;;;;;;0.40;0.10;;;11.40;88.30;;;;;;4949108;28;80772;-84
2021/01/24 00:33:29;;;;;;;0.70;0.10;;;11.40;88.30;;;;;;4949191;28;80683;-77
2021/01/24 00:35:55;;;;;;;0.75;0.30;;;11.40;88.20;;;;;;4949257;28;81323;-78
2021/01/24 00:38:21;;;;;;;0.50;0.10;;;11.40;88.20;;;;;;4967059;28;79805;-73
2021/01/24 00:40:46;;;;;;;1.15;0.30;;;11.40;88.20;;;;;;4967140;28;80266;-73
2021/01/24 00:43:12;;;;;;;0.30;0.10;;;11.40;88.10;;;;;;4948939;28;80903;-81
2021/01/24 00:45:38;;;;;;;1.08;0.50;;;11.40;88.10;;;;;;4966791;28;81015;-74
2021/01/24 00:48:04;;;;;;;0.93;0.30;;;11.30;88.10;;;;;;4948926;28;79858;-79
2021/01/24 00:50:30;;;;;;;1.33;0.40;;;11.40;88.00;;;;;;4949557;28;84731;-77
2021/01/24 00:52:56;;;;;;;0.50;0.20;;;11.40;88.00;;;;;;4967400;28;80866;-72
2021/01/24 00:55:22;;;;;;;1.20;0.20;;;11.40;87.90;;;;;;4950382;28;82959;-75
2021/01/24 00:57:49;;;;;;;0.90;0.28;;;11.30;88.00;;;;;;4970537;28;80457;-84
2021/01/24 01:00:15;;;;;;;1.95;0.30;;;11.30;88.00;;;;;;4952193;28;82967;-72
2021/01/24 01:02:41;;;;;;;0.52;0.20;;;11.20;88.10;;;;;;4952734;28;81626;-74
2021/01/24 01:05:07;;;;;;;0.70;0.22;;;11.20;88.20;;;;;;4952508;28;83044;-80
2021/01/24 01:07:33;;;;;;;0.50;0.10;;;11.10;88.40;;;;;;4970466;28;80203;-76
2021/01/24 01:09:59;;;;;;;0.60;0.15;;;11.20;88.50;;;;;;4952691;28;80732;-70
2021/01/24 01:12:24;;;;;;;1.08;0.20;;;11.20;88.40;;;;;;4970139;28;80257;-72
2021/01/24 01:14:50;;;;;;;1.05;0.32;;;11.20;88.40;;;;;;4952577;28;80639;-70
2021/01/24 01:17:16;;;;;;;1.15;0.10;;;11.20;88.30;;;;;;4951382;28;82742;-72
2021/01/24 01:19:42;;;;;;;0.68;0.20;;;11.20;88.10;;;;;;4952668;28;81325;-77
2021/01/24 01:22:08;;;;;;;1.02;0.20;;;11.20;87.80;;;;;;4970327;28;80248;-68
2021/01/24 01:24:34;;;;;;;2.97;0.20;;;11.20;87.50;;;;;;4952034;28;81748;-69
2021/01/24 01:27:00;;;;;;;1.10;0.40;;;11.20;86.90;;;;;;4951946;28;80382;-76
2021/01/24 01:29:25;;;;;;;0.52;0.20;;;11.20;86.60;;;;;;4969469;28;80598;-73
2021/01/24 01:31:51;;;;;;;3.53;0.13;;;11.30;86.30;;;;;;4951239;28;82210;-71
2021/01/24 01:34:17;;;;;;;1.08;0.30;;;11.20;86.00;;;;;;4951623;28;81021;-72
2021/01/24 01:36:43;;;;;;;2.92;0.75;;;11.10;85.40;;;;;;4969865;28;80208;-73
2021/01/24 01:39:08;;;;;;;2.60;0.10;;;11.10;84.60;;;;;;4951717;28;80722;-72
2021/01/24 01:41:35;;;;;;;1.65;0.50;;;11.10;84.40;;;;;;4951478;28;80418;-75
2021/01/24 01:44:02;;;;;;;1.02;0.10;;;11.10;82.00;;;;;;4951873;28;81787;-77
2021/01/24 01:46:30;;;;;;;1.42;0.17;;;11.20;81.60;;;;;;4969700;28;80829;-72
2021/01/24 01:48:56;;;;;;;3.45;0.22;;;11.10;81.50;;;;;;4935496;28;81130;-72
2021/01/24 01:51:23;;;;;;;1.10;0.35;;;11.20;79.50;;;;;;4936121;28;82429;-70
2021/01/24 01:53:49;;;;;;;0.40;0.20;;;11.10;78.70;;;;;;4951847;28;81548;-79
2021/01/24 01:56:15;;;;;;;0.70;0.10;;;11.10;77.40;;;;;;4951643;28;80290;-72
2021/01/24 01:58:42;;;;;;;1.17;0.50;;;11.10;76.60;;;;;;4968695;28;82463;-76
2021/01/24 02:01:58;;;;;;;4.03;0.82;;;11.20;75.90;;;;;;4935478;28;79801;-76
2021/01/24 02:04:30;;;;;;;3.08;0.68;;;11.20;72.10;;;;;;4918257;28;81215;-74
2021/01/24 02:07:08;;;;;;;1.65;0.20;;;11.10;73.00;;;;;;4968731;28;80589;-74
2021/01/24 02:09:43;;;;;;;2.72;0.55;;;11.10;72.10;;;;;;4950981;28;82880;-74
2021/01/24 02:12:17;;;;;;;2.78;1.50;;;11.10;68.90;;;;;;4969056;28;80716;-74
2021/01/24 02:15:05;;;;;;;2.22;0.40;;;11.10;66.40;;;;;;4950800;28;80957;-71
2021/01/24 02:17:38;;;;;;;5.13;0.60;;;11.20;65.30;;;;;;4968503;28;80286;-71
2021/01/24 02:20:18;;;;;;;3.08;0.50;;;11.20;64.00;;;;;;4968704;28;81230;-70
2021/01/24 02:22:48;;;;;;;4.03;0.30;;;11.20;63.20;;;;;;4969062;28;80325;-70
2021/01/24 02:25:16;;;;;;;7.13;0.50;;;11.20;62.70;;;;;;4950687;28;82203;-72
2021/01/24 02:27:54;;;;;;;2.20;0.35;;;11.20;62.30;;;;;;4951159;28;80781;-71
2021/01/24 02:30:24;;;;;;;6.40;0.98;;;11.20;61.40;;;;;;4952410;28;82909;-68
2021/01/24 02:33:09;;;;;;;4.45;0.20;;;11.20;60.10;;;;;;4970642;28;80391;-74
2021/01/24 02:35:40;;;;;;;2.88;0.43;;;11.20;59.50;;;;;;4952187;28;82793;-79
2021/01/24 02:38:07;;;;;;;4.93;0.40;;;11.20;60.50;;;;;;4952066;28;80516;-69
2021/01/24 02:40:37;;;;;;;1.77;0.50;;;11.20;59.00;;;;;;4951457;28;80666;-75
2021/01/24 02:43:06;;;;;;;6.30;0.52;;;11.10;59.20;;;;;;4951384;28;82572;-78
2021/01/24 02:45:34;;;;;;;4.95;0.52;;;11.10;58.80;;;;;;4952331;28;80634;-77
2021/01/24 02:48:01;;;;;;;2.38;0.73;;;11.10;58.50;;;;;;4969252;28;80759;-85
2021/01/24 02:50:28;;;;;;;4.03;1.02;;;11.10;58.90;;;;;;4950467;28;80822;-82
2021/01/24 02:52:59;;;;;;;4.60;0.60;;;11.00;58.70;;;;;;4970503;28;80531;-78
2021/01/24 02:55:26;;;;;;;1.67;0.35;;;11.10;59.00;;;;;;4968739;28;80641;-71
2021/01/24 02:57:53;;;;;;;5.35;0.43;;;11.00;58.90;;;;;;4968405;28;80031;-74
2021/01/24 03:00:20;;;;;;;6.20;0.32;;;11.00;58.90;;;;;;4950345;28;82941;-78
2021/01/24 03:02:47;;;;;;;3.05;0.75;;;11.00;58.70;;;;;;4950362;28;80368;-70
2021/01/24 03:05:13;;;;;;;4.20;1.02;;;11.00;58.70;;;;;;4951166;28;82886;-80
2021/01/24 03:07:40;;;;;;;2.15;0.63;;;10.90;59.10;;;;;;4951276;28;81453;-89
2021/01/24 03:10:06;;;;;;;3.20;0.65;;;10.90;59.30;;;;;;4950738;28;82806;-76
2021/01/24 03:12:36;;;;;;;2.67;0.40;;;10.80;59.70;;;;;;4949527;28;81805;-76
2021/01/24 03:15:04;;;;;;;4.55;0.55;;;10.80;60.20;;;;;;4949937;28;81974;-79
2021/01/24 03:17:34;;;;;;;7.50;0.80;;;10.80;60.70;;;;;;4967117;28;80092;-73
2021/01/24 03:20:04;;;;;;;4.57;0.30;;;10.70;60.90;;;;;;4950000;28;81929;-80
2021/01/24 03:22:30;;;;;;;4.68;0.65;;;10.70;61.00;;;;;;4949897;28;82247;-81
2021/01/24 03:24:58;;;;;;;4.93;0.47;;;10.70;61.30;;;;;;4967722;28;80666;-77
2021/01/24 03:27:23;;;;;;;4.65;0.77;;;10.70;61.70;;;;;;4949726;28;82357;-83
2021/01/24 03:29:49;;;;;;;5.38;1.27;;;10.60;60.80;;;;;;4967959;28;79764;-75
2021/01/24 03:32:15;;;;;;;1.00;0.20;;;10.70;60.20;;;;;;4968038;28;80346;-85
2021/01/24 03:34:41;;;;;;;3.47;0.30;;;10.70;59.70;;;;;;4949869;28;80514;-81
2021/01/24 03:37:07;;;;;;;4.10;0.50;;;10.70;59.10;;;;;;4949377;28;80309;-84
2021/01/24 03:39:33;;;;;;;3.17;0.45;;;10.70;59.20;;;;;;4967418;28;80771;-79
2021/01/24 03:41:58;;;;;;;6.22;0.73;;;10.70;59.30;;;;;;4949730;28;80675;-84
2021/01/24 03:44:24;;;;;;;5.30;0.82;;;10.80;58.90;;;;;;4949513;28;82745;-82
2021/01/24 03:46:50;;;;;;;3.22;0.75;;;10.80;58.70;;;;;;4967348;28;80416;-85
2021/01/24 03:49:16;;;;;;;7.43;0.90;;;10.70;58.40;;;;;;4950322;28;82195;-77
2021/01/24 03:51:41;;;;;;;6.80;1.38;;;10.70;58.00;;;;;;4968720;28;80236;-85
2021/01/24 03:54:07;;;;;;;4.80;0.70;;;10.80;57.40;;;;;;4950242;28;82973;-86
2021/01/24 03:56:33;;;;;;;3.95;1.00;;;10.80;57.60;;;;;;4949189;28;83026;-83
2021/01/24 03:58:59;;;;;;;7.78;1.63;;;10.70;57.70;;;;;;4967340;28;79660;-85
2021/01/24 04:01:25;;;;;;;4.60;1.15;;;10.70;57.60;;;;;;4967036;28;80029;-72
2021/01/24 04:03:50;;;;;;;4.90;1.05;;;10.60;57.60;;;;;;4949146;28;79955;-78
2021/01/24 04:06:16;;;;;;;2.38;0.60;;;10.60;57.20;;;;;;4949039;28;81422;-78
2021/01/24 04:08:42;;;;;;;5.05;1.05;;;10.70;57.10;;;;;;4967517;28;80976;-74
2021/01/24 04:11:08;;;;;;;6.00;0.80;;;10.70;56.90;;;;;;4948847;28;79977;-78
2021/01/24 04:13:33;;;;;;;6.45;0.68;;;10.70;57.10;;;;;;4967127;28;80693;-78
2021/01/24 04:15:59;;;;;;;3.67;1.40;;;10.60;57.80;;;;;;4948931;28;80741;-73
2021/01/24 04:18:25;;;;;;;6.75;0.88;;;10.70;57.50;;;;;;4947349;28;82757;-70
2021/01/24 04:20:51;;;;;;;4.05;0.93;;;10.70;57.60;;;;;;4966830;28;80798;-75
2021/01/24 04:23:16;;;;;;;3.85;1.08;;;10.70;57.30;;;;;;4949315;28;82387;-70
2021/01/24 04:25:42;;;;;;;4.05;0.63;;;10.80;57.50;;;;;;4949145;28;82681;-71
2021/01/24 04:28:08;;;;;;;7.70;1.15;;;10.80;58.10;;;;;;4966702;28;79767;-71
2021/01/24 04:30:34;;;;;;;2.60;0.57;;;10.70;58.70;;;;;;4969296;28;79558;-70
2021/01/24 04:33:00;;;;;;;6.22;0.75;;;10.70;58.50;;;;;;4970582;28;79697;-77
2021/01/24 04:35:26;;;;;;;3.38;0.60;;;10.70;58.90;;;;;;4970118;28;79944;-78
2021/01/24 04:37:52;;;;;;;3.47;1.00;;;10.60;59.50;;;;;;4951702;28;83743;-80
2021/01/24 04:40:17;;;;;;;6.93;0.65;;;10.60;60.40;;;;;;4970150;28;80206;-80
2021/01/24 04:42:43;;;;;;;5.88;1.45;;;10.50;61.10;;;;;;4951975;28;82619;-74
2021/01/24 04:45:10;;;;;;;8.40;0.90;;;10.40;61.50;;;;;;4970998;28;80484;-76
2021/01/24 04:47:43;;;;;;;4.38;1.35;;;10.40;61.90;;;;;;4970414;28;80820;-72
2021/01/24 04:50:09;;;;;;;6.95;0.70;;;10.40;62.40;;;;;;4969798;28;80670;-78
2021/01/24 04:52:35;;;;;;;5.60;0.50;;;10.30;62.80;;;;;;4952099;28;82976;-78
2021/01/24 04:55:03;;;;;;;4.80;1.20;;;10.30;62.80;;;;;;4951783;28;82804;-74
2021/01/24 04:57:29;;;;;;;3.47;0.55;;;10.30;63.00;;;;;;4951815;28;80030;-71
2021/01/24 04:59:55;;;;;;;4.05;0.98;;;10.20;63.50;;;;;;4952130;28;80434;-71
2021/01/24 05:02:21;;;;;;;2.50;0.70;;;10.20;63.60;;;;;;4951697;28;82930;-71
2021/01/24 05:04:47;;;;;;;4.20;0.65;;;10.20;63.70;;;;;;4952080;28;83159;-73
2021/01/24 05:07:13;;;;;;;3.47;0.80;;;10.10;63.80;;;;;;4951499;28;81037;-73
2021/01/24 05:09:45;;;;;;;5.80;0.95;;;10.10;64.00;;;;;;4952000;28;82545;-73
2021/01/24 05:12:11;;;;;;;7.28;0.75;;;10.10;64.30;;;;;;4969925;28;80756;-72
2021/01/24 05:14:37;;;;;;;5.72;1.20;;;10.00;64.30;;;;;;4951749;28;80555;-72
2021/01/24 05:17:03;;;;;;;5.35;0.77;;;10.00;64.50;;;;;;4951499;28;82872;-74
2021/01/24 05:19:31;;;;;;;6.10;1.50;;;9.90;64.70;;;;;;4970031;28;80812;-71
2021/01/24 05:21:57;;;;;;;5.97;0.93;;;9.90;64.40;;;;;;4951722;28;83447;-72
2021/01/24 05:24:24;;;;;;;5.05;0.70;;;9.90;64.00;;;;;;4951658;28;82247;-72
2021/01/24 05:26:50;;;;;;;5.28;0.70;;;9.90;64.20;;;;;;4969609;28;80991;-73
2021/01/24 05:29:23;;;;;;;8.40;1.70;;;9.90;64.70;;;;;;4969444;28;79844;-70
2021/01/24 05:31:51;;;;;;;3.42;1.02;;;9.90;65.30;;;;;;4951544;28;81898;-69
2021/01/24 05:34:21;;;;;;;4.05;0.70;;;9.80;65.70;;;;;;4969589;28;79933;-70
2021/01/24 05:36:47;;;;;;;4.82;0.80;;;9.70;66.30;;;;;;4951167;28;80839;-70
2021/01/24 05:39:13;;;;;;;6.85;1.08;;;9.70;66.60;;;;;;4951369;28;80251;-69
2021/01/24 05:41:40;;;;;;;6.40;0.95;;;9.60;66.80;;;;;;4949171;28;81985;-74
2021/01/24 05:44:14;;;;;;;4.50;1.38;;;9.60;67.10;;;;;;4951702;28;79856;-73
2021/01/24 05:46:40;;;;;;;5.45;0.93;;;9.50;67.30;;;;;;4969869;28;79778;-70
2021/01/24 05:49:07;;;;;;;4.65;0.93;;;9.40;67.50;;;;;;4969909;28;79877;-72
2021/01/24 05:51:33;;;;;;;4.90;1.00;;;9.50;66.80;;;;;;4949909;28;81063;-75
2021/01/24 05:53:59;;;;;;;6.07;0.85;;;9.40;66.50;;;;;;4950940;28;82369;-77
2021/01/24 05:56:26;;;;;;;5.00;0.70;;;9.40;66.40;;;;;;4951024;28;81133;-76
2021/01/24 05:58:58;;;;;;;5.15;1.40;;;9.40;66.70;;;;;;4969234;28;80220;-78
2021/01/24 06:01:25;;;;;;;4.20;1.00;;;9.40;67.30;;;;;;4950959;28;82174;-78
2021/01/24 06:03:54;;;;;;;8.73;1.67;;;9.40;67.80;;;;;;4949451;28;82022;-73
2021/01/24 06:06:20;;;;;;;4.78;0.98;;;9.40;68.10;;;;;;4969375;28;81027;-75
2021/01/24 06:08:46;;;;;;;6.28;1.10;;;9.30;68.30;;;;;;4968971;28;80582;-77
2021/01/24 06:11:17;;;;;;;5.68;1.65;;;9.30;68.00;;;;;;4950812;28;80812;-72
2021/01/24 06:13:48;;;;;;;5.60;1.17;;;9.30;66.70;;;;;;4951042;28;81234;-79
2021/01/24 06:16:46;;;;;;;7.72;1.45;;;9.30;66.00;;;;;;4950873;28;81045;-77
2021/01/24 06:19:15;;;;;;;7.40;1.40;;;9.40;64.30;;;;;;4935881;28;81567;-75
2021/01/24 06:21:48;;;;;;;5.60;1.40;;;9.40;63.90;;;;;;4968679;28;80552;-75
2021/01/24 06:24:23;;;;;;;7.07;1.00;;;9.40;62.90;;;;;;4969149;28;80824;-73
2021/01/24 06:26:54;;;;;;;6.80;1.70;;;9.50;62.10;;;;;;4950560;28;80746;-79
2021/01/24 06:29:24;;;;;;;6.82;1.08;;;9.50;61.90;;;;;;4969374;28;80411;-79
2021/01/24 06:31:51;;;;;;;3.10;1.08;;;9.50;61.80;;;;;;4969212;28;79782;-76
2021/01/24 06:34:40;;;;;;;5.63;0.75;;;9.60;61.00;;;;;;4950129;28;81042;-69
2021/01/24 06:37:19;;;;;;;6.68;1.25;;;9.70;60.10;;;;;;4949541;28;82535;-70
2021/01/24 06:39:53;;;;;;;14.95;2.28;;;9.70;60.30;;;;;;4968703;28;80402;-78
2021/01/24 06:42:37;;;;;;;7.03;1.33;;;9.80;60.50;;;;;;4968811;28;80495;-68
2021/01/24 06:45:26;;;;;;;6.28;0.90;;;9.80;60.50;;;;;;4950888;28;80699;-79
2021/01/24 06:47:53;;;;;;;5.20;0.93;;;9.80;60.30;;;;;;4950373;28;80205;-68
2021/01/24 06:50:48;;;;;;;6.55;0.85;;;9.80;60.40;;;;;;4950347;28;80710;-79
2021/01/24 06:53:23;;;;;;;4.15;0.85;;;9.80;60.70;;;;;;4968369;28;80341;-78
2021/01/24 06:56:08;;;;;;;7.43;0.93;;;9.80;60.70;;;;;;4967694;28;79980;-71
2021/01/24 06:58:35;;;;;;;4.63;1.23;;;9.80;60.30;;;;;;4950450;28;80795;-72
2021/01/24 07:01:30;;;;;;;9.57;1.95;;;9.80;60.40;;;;;;4950736;28;82016;-76
2021/01/24 07:04:20;;;;;;;8.32;1.23;;;9.80;60.30;;;;;;4950378;28;82417;-76
2021/01/24 07:06:48;;;;;;;6.20;1.00;;;9.90;60.30;;;;;;4968021;28;80368;-73
2021/01/24 07:09:43;;;;;;;5.25;0.88;;;9.90;60.20;;;;;;4967817;28;79867;-76
2021/01/24 07:12:10;;;;;;;7.10;1.02;;;9.90;60.10;;;;;;4948609;28;82141;-74
2021/01/24 07:14:38;;;;;;;5.88;1.27;;;9.90;60.20;;;;;;4950362;28;82856;-75
2021/01/24 07:17:07;;;;;;;5.10;1.20;;;9.90;60.20;;;;;;4950180;28;80858;-70
2021/01/24 07:19:50;;;;;;;5.35;1.13;;;9.90;60.20;;;;;;4950166;28;80431;-73
2021/01/24 07:22:18;;;;;;;7.00;1.00;;;9.80;59.80;;;;;;4949649;28;82692;-70
2021/01/24 07:24:45;;;;;;;7.63;1.23;;;9.80;60.00;;;;;;4968136;28;81131;-68
2021/01/24 07:27:16;;;;;;;10.70;0.77;;;9.80;59.90;;;;;;4967866;28;80312;-70
2021/01/24 07:29:43;;;;;;;7.82;1.67;;;9.70;59.70;;;;;;4950272;28;83603;-69
2021/01/24 07:32:17;;;;;;;7.25;1.33;;;9.70;59.60;;;;;;4967791;28;80770;-71
2021/01/24 07:34:45;;;;;;;5.55;1.02;;;9.70;59.70;;;;;;4949546;28;82650;-70
2021/01/24 07:37:14;;;;;;;7.07;1.48;;;9.80;59.40;;;;;;4949710;28;80608;-83
2021/01/24 07:39:43;;;;;;;5.85;1.10;;;9.80;59.40;;;;;;4967662;28;80617;-71
2021/01/24 07:42:10;;;;;;;6.13;1.00;;;9.90;59.30;;;;;;4949705;28;80499;-77
2021/01/24 07:44:37;;;;;;;5.50;1.23;;;9.90;59.10;;;;;;4949489;28;82679;-77
2021/01/24 07:47:03;;;;;;;5.78;1.33;;;9.90;59.00;;;;;;4949897;28;81400;-76
2021/01/24 07:49:29;;;;;;;6.47;0.93;;;9.90;59.00;;;;;;4949706;28;81012;-80
2021/01/24 07:51:55;;;;;;;6.05;0.85;;;9.90;58.90;;;;;;4949865;28;80935;-71
2021/01/24 07:54:21;;;;;;;6.10;1.13;;;9.90;58.80;;;;;;4967258;28;80428;-70
2021/01/24 07:56:48;;;;;;;4.20;0.52;;;9.90;58.60;;;;;;4967131;28;79887;-72
2021/01/24 07:59:16;;;;;;;5.88;0.80;;;9.90;58.60;;;;;;4967626;28;80042;-70
2021/01/24 08:01:43;;;;;;;8.40;0.90;;;9.90;58.80;;;;;;4967594;28;80692;-71
2021/01/24 08:04:09;;;;;;;7.20;1.40;;;9.80;59.00;;;;;;4949258;28;80046;-71
2021/01/24 08:06:39;;;;;;;9.45;1.05;;;9.80;59.00;;;;;;4949189;28;80418;-73
2021/01/24 08:09:06;;;;;;;7.30;0.73;;;9.80;59.00;;;;;;4949994;28;80769;-69
2021/01/24 08:11:33;;;;;;;5.38;0.90;;;9.80;58.90;;;;;;4967682;28;80991;-67
2021/01/24 08:13:59;;;;;;;5.78;0.85;;;9.80;59.10;;;;;;4949420;28;82011;-73
2021/01/24 08:16:45;;;;;;;3.67;0.93;;;9.80;59.20;;;;;;4967344;28;80173;-74
2021/01/24 08:19:15;;;;;;;4.72;1.35;;;9.70;59.10;;;;;;4949084;28;82890;-75
2021/01/24 08:21:41;;;;;;;6.70;0.98;;;9.60;59.30;;;;;;4967580;28;80741;-70
2021/01/24 08:24:08;;;;;;;6.97;1.80;;;9.60;59.30;;;;;;4950112;28;80722;-75
2021/01/24 08:26:37;;;;;;;7.72;1.33;;;9.70;59.40;;;;;;4949616;28;80918;-78
2021/01/24 08:29:04;;;;;;;8.23;1.35;;;9.60;59.20;;;;;;4949011;28;83000;-73
2021/01/24 08:31:31;;;;;;;7.30;1.40;;;9.70;59.10;;;;;;4949118;28;80459;-74
2021/01/24 08:33:57;;;;;;;5.97;1.60;;;9.70;59.20;;;;;;4968246;28;79759;-75
2021/01/24 08:36:27;;;;;;;5.00;1.17;;;9.80;59.00;;;;;;4967579;28;80635;-74
2021/01/24 08:38:58;;;;;;;7.15;0.80;;;9.90;58.90;;;;;;4949272;28;81266;-78
2021/01/24 08:41:52;;;;;;;7.22;1.45;;;9.90;58.40;;;;;;4966952;28;80655;-81
2021/01/24 08:44:17;;;;;;;6.75;1.00;;;10.00;58.20;;;;;;4948218;28;83412;-72
2021/01/24 08:46:48;;;;;;;6.25;0.95;;;10.10;58.20;;;;;;4949230;28;80207;-74
2021/01/24 08:49:24;;;;;;;3.22;0.85;;;10.10;58.20;;;;;;4950632;28;82074;-80
2021/01/24 08:51:55;;;;;;;5.18;1.58;;;10.20;58.00;;;;;;4952792;28;83136;-76
2021/01/24 08:54:34;;;;;;;10.55;1.50;;;10.20;57.70;;;;;;4951607;28;80846;-73
2021/01/24 08:57:14;;;;;;;5.97;1.25;;;10.30;57.80;;;;;;4951354;28;80862;-70
2021/01/24 08:59:49;;;;;;;7.97;1.45;;;10.40;57.80;;;;;;4951832;28;81898;-72
2021/01/24 09:02:26;;;;;;;5.25;1.05;;;10.40;57.90;;;;;;4969594;28;79649;-72
2021/01/24 09:04:52;;;;;;;4.50;0.88;;;10.50;57.70;;;;;;4967652;28;80754;-73
2021/01/24 09:07:19;;;;;;;2.92;1.33;;;10.60;57.60;;;;;;4949597;28;82223;-64
2021/01/24 09:09:46;;;;;;;6.00;1.25;;;10.70;57.20;;;;;;4948685;28;82161;-69
2021/01/24 09:12:19;;;;;;;5.82;1.80;;;10.80;57.20;;;;;;4966829;28;80336;-73
2021/01/24 09:14:46;;;;;;;7.20;1.02;;;10.80;57.60;;;;;;4948997;28;79863;-72
2021/01/24 09:17:14;;;;;;;6.43;1.52;;;10.90;57.90;;;;;;4951695;28;81379;-77
2021/01/24 09:19:43;;;;;;;7.30;1.35;;;10.90;58.10;;;;;;4952399;28;82556;-74
2021/01/24 09:22:11;;;;;;;3.10;0.70;;;11.10;57.90;;;;;;4951852;28;82771;-69
2021/01/24 09:24:37;;;;;;;10.07;1.83;;;11.30;57.40;;;;;;4970195;28;80789;-74
2021/01/24 09:27:05;;;;;;;9.18;0.93;;;11.60;57.00;;;;;;4970180;28;80170;-72
2021/01/24 09:29:41;;;;;;;5.95;0.70;;;11.80;56.60;;;;;;4952158;28;80744;-72
2021/01/24 09:32:08;;;;;;;4.25;0.60;;;12.10;55.50;;;;;;4952162;28;79843;-75
2021/01/24 09:34:35;;;;;;;4.40;0.88;;;12.30;54.40;;;;;;4952119;28;80866;-79
2021/01/24 09:37:01;;;;;;;8.98;2.30;;;12.40;53.80;;;;;;4970134;28;80447;-68
2021/01/24 09:39:29;;;;;;;7.45;1.80;;;12.30;53.70;;;;;;4952712;28;81030;-64
2021/01/24 09:41:55;;;;;;;4.68;1.42;;;12.30;53.50;;;;;;4952298;28;80639;-73
2021/01/24 09:44:23;;;;;;;4.85;1.02;;;12.50;53.10;;;;;;4970342;28;81154;-66
2021/01/24 09:46:49;;;;;;;7.30;1.35;;;12.90;51.90;;;;;;4951925;28;79909;-66
2021/01/24 09:49:15;;;;;;;6.65;1.00;;;13.40;50.80;;;;;;4950831;28;81802;-67
2021/01/24 09:51:41;;;;;;;4.13;1.17;;;13.80;49.80;;;;;;4951862;28;80041;-69
2021/01/24 09:54:07;;;;;;;3.15;0.73;;;14.10;49.20;;;;;;4952000;28;82686;-66
2021/01/24 09:56:33;;;;;;;5.25;1.13;;;14.50;47.80;;;;;;4970297;28;79685;-69
2021/01/24 09:58:59;;;;;;;4.72;0.82;;;14.80;46.30;;;;;;4951837;28;81590;-68
2021/01/24 10:01:26;;;;;;;5.65;0.98;;;15.00;45.70;;;;;;4951780;28;80363;-70
2021/01/24 10:03:52;;;;;;;2.38;0.43;;;15.20;44.80;;;;;;4951653;28;83245;-62
2021/01/24 10:06:20;;;;;;;6.07;0.90;;;15.30;44.20;;;;;;4951252;28;82704;-60
2021/01/24 10:08:46;;;;;;;4.45;0.80;;;15.20;44.40;;;;;;4969432;28;80514;-64
2021/01/24 10:11:13;;;;;;;2.22;0.52;;;15.10;44.40;;;;;;4951078;28;81730;-64
2021/01/24 10:13:40;;;;;;;5.97;0.68;;;14.90;44.90;;;;;;4951513;28;79796;-63
2021/01/24 10:16:07;;;;;;;4.57;0.88;;;14.80;44.90;;;;;;4969337;28;80216;-68
2021/01/24 10:18:33;;;;;;;3.97;0.90;;;14.80;44.30;;;;;;4951342;28;80673;-60
2021/01/24 10:21:02;;;;;;;10.10;1.25;;;14.80;45.70;;;;;;4951296;28;80227;-61
2021/01/24 10:23:27;;;;;;;4.47;1.13;;;14.60;47.10;;;;;;4969562;28;81014;-62
2021/01/24 10:25:55;;;;;;;5.47;0.90;;;14.70;46.90;;;;;;4968898;28;79843;-61
2021/01/24 10:28:24;;;;;;;10.90;1.70;;;15.10;45.30;;;;;;4951120;28;81055;-63
2021/01/24 10:30:52;;;;;;;5.20;1.00;;;15.60;44.90;;;;;;4951344;28;80316;-66
2021/01/24 10:33:19;;;;;;;10.90;2.88;;;16.00;45.60;;;;;;4951292;28;83378;-61
2021/01/24 10:35:45;;;;;;;5.40;1.45;;;15.80;45.90;;;;;;4951161;28;83190;-64
2021/01/24 10:38:11;;;;;;;3.42;0.93;;;14.90;47.80;;;;;;4955161;28;80717;-61
2021/01/24 10:40:37;;;;;;;9.98;1.35;;;14.10;49.10;;;;;;4985954;28;80662;-64
2021/01/24 10:43:04;;;;;;;4.05;1.15;;;13.50;51.70;;;;;;4970616;28;80808;-63
2021/01/24 10:45:33;;;;;;;7.93;1.23;;;13.00;52.90;;;;;;4988321;28;80429;-65
2021/01/24 10:48:02;;;;;;;4.55;0.93;;;12.70;53.50;;;;;;4988004;28;80791;-68
2021/01/24 10:50:28;;;;;;;3.13;0.57;;;12.60;51.70;;;;;;4988073;28;80321;-70
2021/01/24 10:52:55;;;;;;;4.88;0.77;;;12.70;51.50;;;;;;4987601;28;80625;-65
2021/01/24 10:55:21;;;;;;;3.38;0.50;;;12.80;50.30;;;;;;4987945;28;80101;-62
2021/01/24 10:57:47;;;;;;;9.68;0.60;;;12.90;50.00;;;;;;4969846;28;81073;-65
2021/01/24 11:00:14;;;;;;;5.07;0.82;;;12.90;49.70;;;;;;4970161;28;82683;-62
2021/01/24 11:02:40;;;;;;;5.70;0.70;;;12.90;49.20;;;;;;4988341;28;81147;-67
2021/01/24 11:05:07;;;;;;;5.30;0.77;;;13.00;48.90;;;;;;4969877;28;81371;-61
2021/01/24 11:07:33;;;;;;;4.72;0.60;;;13.40;47.30;;;;;;4962969;28;82425;-64
2021/01/24 11:09:59;;;;;;;3.60;1.15;;;14.90;44.30;;;;;;4950183;28;80738;-64
2021/01/24 11:12:25;;;;;;;4.50;0.90;;;15.40;43.60;;;;;;4968471;28;79956;-63
2021/01/24 11:14:51;;;;;;;4.50;1.05;;;15.30;43.40;;;;;;4967934;28;80274;-60
2021/01/24 11:17:18;;;;;;;7.32;1.13;;;17.00;40.30;;;;;;4968305;28;80669;-61
2021/01/24 11:19:44;;;;;;;4.97;0.68;;;17.40;38.70;;;;;;4949518;28;80970;-61
2021/01/24 11:22:11;;;;;;;2.95;0.73;;;18.10;37.10;;;;;;4949563;28;83028;-63
2021/01/24 11:24:37;;;;;;;7.78;0.98;;;17.70;37.50;;;;;;4949899;28;82388;-61
2021/01/24 11:27:07;;;;;;;5.95;1.00;;;18.90;36.10;;;;;;4967780;28;80898;-60
2021/01/24 11:29:41;;;;;;;3.35;0.60;;;20.60;33.30;;;;;;4949580;28;80005;-62
2021/01/24 11:32:08;;;;;;;5.78;0.73;;;21.30;32.00;;;;;;4949886;28;82279;-61
2021/01/24 11:34:38;;;;;;;6.25;1.25;;;21.50;31.70;;;;;;4967923;28;80089;-61
2021/01/24 11:37:05;;;;;;;4.47;1.13;;;22.10;31.80;;;;;;4967749;28;80386;-60
2021/01/24 11:39:31;;;;;;;5.15;1.20;;;21.90;32.80;;;;;;4948143;28;81757;-59
2021/01/24 11:41:57;;;;;;;4.50;1.17;;;21.70;33.20;;;;;;4950023;28;82527;-62
2021/01/24 11:44:24;;;;;;;3.83;1.05;;;21.90;32.90;;;;;;4949916;28;79915;-61
2021/01/24 11:46:51;;;;;;;6.50;0.82;;;21.90;32.90;;;;;;4949766;28;79993;-61
2021/01/24 11:49:17;;;;;;;2.50;0.63;;;22.40;31.80;;;;;;4949559;28;82767;-63
2021/01/24 11:51:44;;;;;;;5.95;0.60;;;23.10;30.80;;;;;;4967530;28;80650;-67
2021/01/24 11:54:10;;;;;;;3.28;0.82;;;23.40;30.60;;;;;;4968129;28;79858;-62
2021/01/24 11:56:36;;;;;;;4.25;0.90;;;23.40;30.80;;;;;;4949282;28;79872;-66
2021/01/24 11:59:02;;;;;;;3.75;1.27;;;23.60;30.40;;;;;;4949722;28;82145;-62
2021/01/24 12:01:28;;;;;;;6.25;0.85;;;23.40;30.20;;;;;;4967223;28;81327;-65
2021/01/24 12:03:54;;;;;;;4.65;1.15;;;23.10;30.80;;;;;;4949086;28;82935;-62
2021/01/24 12:06:20;;;;;;;5.45;0.95;;;23.60;29.90;;;;;;4949948;28;82015;-65
2021/01/24 12:08:46;;;;;;;5.10;1.05;;;23.90;29.20;;;;;;4949367;28;81345;-65
2021/01/24 12:11:12;;;;;;;4.72;1.00;;;24.30;29.10;;;;;;4949469;28;79820;-65
2021/01/24 12:13:38;;;;;;;4.28;1.73;;;23.30;30.50;;;;;;4967283;28;80036;-61
2021/01/24 12:16:04;;;;;;;3.83;0.70;;;22.30;32.10;;;;;;4949309;28;82105;-65
2021/01/24 12:18:30;;;;;;;3.63;0.80;;;22.70;31.30;;;;;;4948737;28;82193;-64
2021/01/24 12:20:55;;;;;;;4.10;1.00;;;22.70;30.10;;;;;;4967080;28;80359;-63
2021/01/24 12:23:22;;;;;;;3.95;1.23;;;20.60;33.20;;;;;;4966918;28;80605;-61
2021/01/24 12:25:48;;;;;;;6.90;1.20;;;18.90;35.90;;;;;;4949253;28;79889;-63
2021/01/24 12:28:14;;;;;;;8.43;1.25;;;18.50;36.90;;;;;;4948871;28;82532;-63
2021/01/24 12:30:40;;;;;;;5.35;0.80;;;18.60;36.60;;;;;;4966829;28;79787;-62
2021/01/24 12:33:11;;;;;;;2.88;1.13;;;18.00;37.50;;;;;;4949300;28;81538;-63
2021/01/24 12:35:37;;;;;;;3.28;0.82;;;18.30;37.70;;;;;;4948928;28;82176;-62
2021/01/24 12:38:03;;;;;;;4.47;0.80;;;20.10;34.70;;;;;;4966995;28;80337;-65
2021/01/24 12:40:29;;;;;;;5.20;0.90;;;21.50;32.40;;;;;;4945084;28;83613;-64
2021/01/24 12:42:55;;;;;;;4.45;1.15;;;22.00;31.50;;;;;;4947706;28;79810;-65
2021/01/24 12:45:21;;;;;;;5.35;0.93;;;21.30;32.50;;;;;;4930096;28;81092;-64
2021/01/24 12:47:50;;;;;;;7.07;0.80;;;20.10;33.90;;;;;;4947543;28;80743;-62
2021/01/24 12:50:18;;;;;;;3.63;1.02;;;20.00;34.00;;;;;;4930169;28;80653;-64
2021/01/24 12:52:45;;;;;;;3.25;1.20;;;21.40;32.30;;;;;;4932784;28;80471;-66
2021/01/24 12:55:11;;;;;;;2.72;0.40;;;21.40;32.00;;;;;;4932798;28;82122;-68
2021/01/24 12:57:37;;;;;;;4.80;1.33;;;20.60;32.50;;;;;;4932124;28;80294;-63